sensor_id;sensor_type;location;lat;lon;timestamp;P1;durP1;ratioP1;P2;durP2;ratioP2
14698;SDS011;7439;50.804;4.602;2023-04-15T00:02:14;10.97;;;7.90;;
14698;SDS011;7439;50.804;4.602;2023-04-15T00:04:42;15.43;;;7.57;;
14698;SDS011;7439;50.804;4.602;2023-04-15T00:07:10;11.67;;;7.53;;
14698;SDS011;7439;50.804;4.602;2023-04-15T00:09:37;9.30;;;7.87;;
14698;SDS011;7439;50.804;4.602;2023-04-15T00:12:05;13.97;;;7.43;;
14698;SDS011;7439;50.804;4.602;2023-04-15T00:14:33;11.73;;;8.87;;
14698;SDS011;7439;50.804;4.602;2023-04-15T00:17:01;11.83;;;7.17;;
14698;SDS011;7439;50.804;4.602;2023-04-15T00:19:30;10.03;;;7.33;;
14698;SDS011;7439;50.804;4.602;2023-04-15T00:21:58;8.70;;;6.53;;
14698;SDS011;7439;50.804;4.602;2023-04-15T00:24:26;10.47;;;7.10;;
14698;SDS011;7439;50.804;4.602;2023-04-15T00:26:53;11.07;;;7.03;;
14698;SDS011;7439;50.804;4.602;2023-04-15T00:29:20;8.73;;;6.53;;
14698;SDS011;7439;50.804;4.602;2023-04-15T00:31:48;7.40;;;6.43;;
14698;SDS011;7439;50.804;4.602;2023-04-15T00:34:15;9.60;;;6.57;;
14698;SDS011;7439;50.804;4.602;2023-04-15T00:36:44;12.80;;;7.30;;
14698;SDS011;7439;50.804;4.602;2023-04-15T00:39:11;7.70;;;6.53;;
14698;SDS011;7439;50.804;4.602;2023-04-15T00:41:40;10.97;;;6.30;;
14698;SDS011;7439;50.804;4.602;2023-04-15T00:44:07;9.30;;;8.03;;
14698;SDS011;7439;50.804;4.602;2023-04-15T00:46:36;8.30;;;6.47;;
14698;SDS011;7439;50.804;4.602;2023-04-15T00:49:04;9.20;;;6.67;;
14698;SDS011;7439;50.804;4.602;2023-04-15T00:51:32;10.07;;;7.77;;
14698;SDS011;7439;50.804;4.602;2023-04-15T00:54:02;8.17;;;7.30;;
14698;SDS011;7439;50.804;4.602;2023-04-15T00:56:30;10.93;;;7.40;;
14698;SDS011;7439;50.804;4.602;2023-04-15T00:58:57;10.57;;;7.23;;
14698;SDS011;7439;50.804;4.602;2023-04-15T01:01:25;10.67;;;6.80;;
14698;SDS011;7439;50.804;4.602;2023-04-15T01:03:54;8.40;;;7.53;;
14698;SDS011;7439;50.804;4.602;2023-04-15T01:06:21;9.77;;;8.10;;
14698;SDS011;7439;50.804;4.602;2023-04-15T01:08:49;9.87;;;8.30;;
14698;SDS011;7439;50.804;4.602;2023-04-15T01:11:18;11.47;;;8.13;;
14698;SDS011;7439;50.804;4.602;2023-04-15T01:13:45;9.27;;;8.33;;
14698;SDS011;7439;50.804;4.602;2023-04-15T01:16:13;9.80;;;8.23;;
14698;SDS011;7439;50.804;4.602;2023-04-15T01:18:41;10.40;;;8.93;;
14698;SDS011;7439;50.804;4.602;2023-04-15T01:21:09;10.07;;;8.57;;
14698;SDS011;7439;50.804;4.602;2023-04-15T01:23:36;10.07;;;8.30;;
14698;SDS011;7439;50.804;4.602;2023-04-15T01:26:06;9.97;;;8.40;;
14698;SDS011;7439;50.804;4.602;2023-04-15T01:28:34;10.27;;;8.20;;
14698;SDS011;7439;50.804;4.602;2023-04-15T01:31:05;10.80;;;7.53;;
14698;SDS011;7439;50.804;4.602;2023-04-15T01:33:32;9.97;;;8.97;;
14698;SDS011;7439;50.804;4.602;2023-04-15T01:36:00;9.83;;;8.70;;
14698;SDS011;7439;50.804;4.602;2023-04-15T01:38:28;9.97;;;7.93;;
14698;SDS011;7439;50.804;4.602;2023-04-15T01:40:56;14.60;;;8.70;;
14698;SDS011;7439;50.804;4.602;2023-04-15T01:43:25;11.23;;;8.73;;
14698;SDS011;7439;50.804;4.602;2023-04-15T01:45:52;9.43;;;8.43;;
14698;SDS011;7439;50.804;4.602;2023-04-15T01:48:20;10.53;;;7.93;;
14698;SDS011;7439;50.804;4.602;2023-04-15T01:50:48;11.07;;;8.90;;
14698;SDS011;7439;50.804;4.602;2023-04-15T01:53:16;11.17;;;8.30;;
14698;SDS011;7439;50.804;4.602;2023-04-15T01:55:43;14.00;;;8.47;;
14698;SDS011;7439;50.804;4.602;2023-04-15T01:58:11;11.63;;;8.37;;
14698;SDS011;7439;50.804;4.602;2023-04-15T02:00:40;9.73;;;7.90;;
14698;SDS011;7439;50.804;4.602;2023-04-15T02:03:08;12.77;;;8.37;;
14698;SDS011;7439;50.804;4.602;2023-04-15T02:05:35;12.77;;;8.90;;
14698;SDS011;7439;50.804;4.602;2023-04-15T02:08:03;8.93;;;8.03;;
14698;SDS011;7439;50.804;4.602;2023-04-15T02:10:30;10.03;;;8.23;;
14698;SDS011;7439;50.804;4.602;2023-04-15T02:12:57;10.40;;;8.97;;
14698;SDS011;7439;50.804;4.602;2023-04-15T02:15:25;12.60;;;8.70;;
14698;SDS011;7439;50.804;4.602;2023-04-15T02:17:54;9.43;;;7.60;;
14698;SDS011;7439;50.804;4.602;2023-04-15T02:20:23;10.27;;;6.50;;
14698;SDS011;7439;50.804;4.602;2023-04-15T02:22:50;15.30;;;8.47;;
14698;SDS011;7439;50.804;4.602;2023-04-15T02:25:18;10.13;;;8.27;;
14698;SDS011;7439;50.804;4.602;2023-04-15T02:27:45;10.93;;;8.97;;
14698;SDS011;7439;50.804;4.602;2023-04-15T02:30:12;8.63;;;7.70;;
14698;SDS011;7439;50.804;4.602;2023-04-15T02:32:40;11.00;;;8.83;;
14698;SDS011;7439;50.804;4.602;2023-04-15T02:35:10;13.13;;;9.23;;
14698;SDS011;7439;50.804;4.602;2023-04-15T02:37:38;11.30;;;8.57;;
14698;SDS011;7439;50.804;4.602;2023-04-15T02:40:08;9.97;;;8.73;;
14698;SDS011;7439;50.804;4.602;2023-04-15T02:42:36;12.20;;;8.37;;
14698;SDS011;7439;50.804;4.602;2023-04-15T02:45:04;9.17;;;8.20;;
14698;SDS011;7439;50.804;4.602;2023-04-15T02:47:32;14.00;;;8.70;;
14698;SDS011;7439;50.804;4.602;2023-04-15T02:50:00;9.10;;;7.93;;
14698;SDS011;7439;50.804;4.602;2023-04-15T02:52:29;10.77;;;8.23;;
14698;SDS011;7439;50.804;4.602;2023-04-15T02:54:56;9.50;;;7.83;;
14698;SDS011;7439;50.804;4.602;2023-04-15T02:57:26;9.97;;;7.70;;
14698;SDS011;7439;50.804;4.602;2023-04-15T02:59:54;13.87;;;7.83;;
14698;SDS011;7439;50.804;4.602;2023-04-15T03:02:21;11.90;;;7.47;;
14698;SDS011;7439;50.804;4.602;2023-04-15T03:04:48;9.30;;;7.90;;
14698;SDS011;7439;50.804;4.602;2023-04-15T03:07:16;14.87;;;8.90;;
14698;SDS011;7439;50.804;4.602;2023-04-15T03:09:45;9.60;;;8.13;;
14698;SDS011;7439;50.804;4.602;2023-04-15T03:12:13;9.53;;;8.40;;
14698;SDS011;7439;50.804;4.602;2023-04-15T03:14:40;11.10;;;7.80;;
14698;SDS011;7439;50.804;4.602;2023-04-15T03:17:07;8.40;;;7.53;;
14698;SDS011;7439;50.804;4.602;2023-04-15T03:19:35;10.30;;;8.20;;
14698;SDS011;7439;50.804;4.602;2023-04-15T03:22:02;9.33;;;7.37;;
14698;SDS011;7439;50.804;4.602;2023-04-15T03:24:29;9.40;;;8.23;;
14698;SDS011;7439;50.804;4.602;2023-04-15T03:26:58;9.60;;;7.57;;
14698;SDS011;7439;50.804;4.602;2023-04-15T03:29:26;9.57;;;7.70;;
14698;SDS011;7439;50.804;4.602;2023-04-15T03:31:53;10.13;;;8.50;;
14698;SDS011;7439;50.804;4.602;2023-04-15T03:34:21;10.40;;;8.43;;
14698;SDS011;7439;50.804;4.602;2023-04-15T03:36:48;12.37;;;8.57;;
14698;SDS011;7439;50.804;4.602;2023-04-15T03:39:16;11.00;;;8.27;;
14698;SDS011;7439;50.804;4.602;2023-04-15T03:41:43;11.27;;;8.47;;
14698;SDS011;7439;50.804;4.602;2023-04-15T03:44:12;14.33;;;8.20;;
14698;SDS011;7439;50.804;4.602;2023-04-15T03:46:40;8.70;;;7.90;;
14698;SDS011;7439;50.804;4.602;2023-04-15T03:49:07;10.30;;;9.23;;
14698;SDS011;7439;50.804;4.602;2023-04-15T03:51:34;10.57;;;8.13;;
14698;SDS011;7439;50.804;4.602;2023-04-15T03:54:02;10.13;;;8.57;;
14698;SDS011;7439;50.804;4.602;2023-04-15T03:56:29;10.80;;;8.47;;
14698;SDS011;7439;50.804;4.602;2023-04-15T03:58:57;9.77;;;8.00;;
14698;SDS011;7439;50.804;4.602;2023-04-15T04:01:26;11.47;;;8.83;;
14698;SDS011;7439;50.804;4.602;2023-04-15T04:03:53;11.20;;;8.93;;
14698;SDS011;7439;50.804;4.602;2023-04-15T04:06:20;9.80;;;8.80;;
14698;SDS011;7439;50.804;4.602;2023-04-15T04:08:48;9.43;;;8.47;;
14698;SDS011;7439;50.804;4.602;2023-04-15T04:11:15;11.13;;;9.63;;
14698;SDS011;7439;50.804;4.602;2023-04-15T04:13:42;12.03;;;10.33;;
14698;SDS011;7439;50.804;4.602;2023-04-15T04:16:10;11.43;;;10.23;;
14698;SDS011;7439;50.804;4.602;2023-04-15T04:18:39;10.97;;;9.27;;
14698;SDS011;7439;50.804;4.602;2023-04-15T04:21:06;13.90;;;11.03;;
14698;SDS011;7439;50.804;4.602;2023-04-15T04:23:34;13.40;;;11.07;;
14698;SDS011;7439;50.804;4.602;2023-04-15T04:26:01;16.87;;;12.43;;
14698;SDS011;7439;50.804;4.602;2023-04-15T04:28:28;13.17;;;11.83;;
14698;SDS011;7439;50.804;4.602;2023-04-15T04:30:56;16.50;;;12.07;;
14698;SDS011;7439;50.804;4.602;2023-04-15T04:33:23;13.27;;;11.03;;
14698;SDS011;7439;50.804;4.602;2023-04-15T04:35:52;14.80;;;12.10;;
14698;SDS011;7439;50.804;4.602;2023-04-15T04:38:20;11.17;;;10.00;;
14698;SDS011;7439;50.804;4.602;2023-04-15T04:40:47;12.37;;;10.50;;
14698;SDS011;7439;50.804;4.602;2023-04-15T04:43:15;13.43;;;11.87;;
14698;SDS011;7439;50.804;4.602;2023-04-15T04:45:42;14.60;;;11.43;;
14698;SDS011;7439;50.804;4.602;2023-04-15T04:48:09;13.60;;;11.17;;
14698;SDS011;7439;50.804;4.602;2023-04-15T04:50:37;13.00;;;11.77;;
14698;SDS011;7439;50.804;4.602;2023-04-15T04:53:06;13.23;;;11.77;;
14698;SDS011;7439;50.804;4.602;2023-04-15T04:55:33;12.93;;;11.37;;
14698;SDS011;7439;50.804;4.602;2023-04-15T04:58:01;13.80;;;12.40;;
14698;SDS011;7439;50.804;4.602;2023-04-15T05:00:28;14.37;;;12.80;;
14698;SDS011;7439;50.804;4.602;2023-04-15T05:02:55;15.97;;;12.43;;
14698;SDS011;7439;50.804;4.602;2023-04-15T05:05:23;14.43;;;12.17;;
14698;SDS011;7439;50.804;4.602;2023-04-15T05:07:51;13.60;;;12.30;;
14698;SDS011;7439;50.804;4.602;2023-04-15T05:10:19;15.13;;;11.57;;
14698;SDS011;7439;50.804;4.602;2023-04-15T05:12:47;14.57;;;13.03;;
14698;SDS011;7439;50.804;4.602;2023-04-15T05:15:14;14.57;;;13.07;;
14698;SDS011;7439;50.804;4.602;2023-04-15T05:17:41;15.40;;;13.57;;
14698;SDS011;7439;50.804;4.602;2023-04-15T05:20:09;14.47;;;12.97;;
14698;SDS011;7439;50.804;4.602;2023-04-15T05:22:37;17.43;;;13.03;;
14698;SDS011;7439;50.804;4.602;2023-04-15T05:25:04;15.43;;;13.07;;
14698;SDS011;7439;50.804;4.602;2023-04-15T05:27:34;15.20;;;13.80;;
14698;SDS011;7439;50.804;4.602;2023-04-15T05:30:01;15.33;;;13.93;;
14698;SDS011;7439;50.804;4.602;2023-04-15T05:32:29;14.13;;;12.83;;
14698;SDS011;7439;50.804;4.602;2023-04-15T05:34:57;15.00;;;13.50;;
14698;SDS011;7439;50.804;4.602;2023-04-15T05:37:24;14.67;;;13.20;;
14698;SDS011;7439;50.804;4.602;2023-04-15T05:39:52;14.57;;;12.37;;
14698;SDS011;7439;50.804;4.602;2023-04-15T05:42:19;16.90;;;13.07;;
14698;SDS011;7439;50.804;4.602;2023-04-15T05:44:48;14.73;;;13.17;;
14698;SDS011;7439;50.804;4.602;2023-04-15T05:47:16;15.10;;;13.43;;
14698;SDS011;7439;50.804;4.602;2023-04-15T05:49:43;15.03;;;13.00;;
14698;SDS011;7439;50.804;4.602;2023-04-15T05:52:10;14.70;;;13.20;;
14698;SDS011;7439;50.804;4.602;2023-04-15T05:54:38;14.20;;;12.73;;
14698;SDS011;7439;50.804;4.602;2023-04-15T05:57:05;15.10;;;13.60;;
14698;SDS011;7439;50.804;4.602;2023-04-15T05:59:33;15.43;;;13.67;;
14698;SDS011;7439;50.804;4.602;2023-04-15T06:02:01;18.67;;;13.63;;
14698;SDS011;7439;50.804;4.602;2023-04-15T06:04:29;14.80;;;13.40;;
14698;SDS011;7439;50.804;4.602;2023-04-15T06:06:56;14.33;;;12.97;;
14698;SDS011;7439;50.804;4.602;2023-04-15T06:09:24;14.83;;;13.33;;
14698;SDS011;7439;50.804;4.602;2023-04-15T06:11:52;16.77;;;13.40;;
14698;SDS011;7439;50.804;4.602;2023-04-15T06:14:20;14.23;;;12.70;;
14698;SDS011;7439;50.804;4.602;2023-04-15T06:16:47;13.53;;;12.13;;
14698;SDS011;7439;50.804;4.602;2023-04-15T06:19:16;20.03;;;13.80;;
14698;SDS011;7439;50.804;4.602;2023-04-15T06:21:44;19.50;;;13.10;;
14698;SDS011;7439;50.804;4.602;2023-04-15T06:24:12;17.00;;;12.43;;
14698;SDS011;7439;50.804;4.602;2023-04-15T06:26:39;14.10;;;12.70;;
14698;SDS011;7439;50.804;4.602;2023-04-15T06:29:07;14.07;;;12.13;;
14698;SDS011;7439;50.804;4.602;2023-04-15T06:31:34;14.17;;;11.97;;
14698;SDS011;7439;50.804;4.602;2023-04-15T06:34:01;17.40;;;11.07;;
14698;SDS011;7439;50.804;4.602;2023-04-15T06:36:31;13.83;;;11.30;;
14698;SDS011;7439;50.804;4.602;2023-04-15T06:38:59;14.17;;;10.80;;
14698;SDS011;7439;50.804;4.602;2023-04-15T06:41:26;12.83;;;10.53;;
14698;SDS011;7439;50.804;4.602;2023-04-15T06:43:54;14.30;;;10.83;;
14698;SDS011;7439;50.804;4.602;2023-04-15T06:46:21;11.90;;;9.90;;
14698;SDS011;7439;50.804;4.602;2023-04-15T06:48:48;14.47;;;10.83;;
14698;SDS011;7439;50.804;4.602;2023-04-15T06:51:16;13.17;;;10.67;;
14698;SDS011;7439;50.804;4.602;2023-04-15T06:53:45;14.80;;;10.77;;
14698;SDS011;7439;50.804;4.602;2023-04-15T06:56:12;15.90;;;11.27;;
14698;SDS011;7439;50.804;4.602;2023-04-15T06:58:40;12.80;;;11.23;;
14698;SDS011;7439;50.804;4.602;2023-04-15T07:01:07;16.13;;;10.97;;
14698;SDS011;7439;50.804;4.602;2023-04-15T07:03:34;13.87;;;10.83;;
14698;SDS011;7439;50.804;4.602;2023-04-15T07:06:02;12.43;;;10.73;;
14698;SDS011;7439;50.804;4.602;2023-04-15T07:08:31;14.67;;;11.07;;
14698;SDS011;7439;50.804;4.602;2023-04-15T07:11:00;14.80;;;11.10;;
14698;SDS011;7439;50.804;4.602;2023-04-15T07:13:29;13.87;;;10.93;;
14698;SDS011;7439;50.804;4.602;2023-04-15T07:15:57;16.53;;;11.57;;
14698;SDS011;7439;50.804;4.602;2023-04-15T07:18:27;11.50;;;10.30;;
14698;SDS011;7439;50.804;4.602;2023-04-15T07:20:55;13.03;;;11.30;;
14698;SDS011;7439;50.804;4.602;2023-04-15T07:23:22;12.40;;;11.10;;
14698;SDS011;7439;50.804;4.602;2023-04-15T07:25:49;11.33;;;10.23;;
14698;SDS011;7439;50.804;4.602;2023-04-15T07:28:19;15.97;;;11.00;;
14698;SDS011;7439;50.804;4.602;2023-04-15T07:30:46;12.23;;;10.93;;
14698;SDS011;7439;50.804;4.602;2023-04-15T07:33:16;19.43;;;12.87;;
14698;SDS011;7439;50.804;4.602;2023-04-15T07:35:43;16.40;;;12.10;;
14698;SDS011;7439;50.804;4.602;2023-04-15T07:38:11;13.87;;;12.27;;
14698;SDS011;7439;50.804;4.602;2023-04-15T07:40:38;16.00;;;13.63;;
14698;SDS011;7439;50.804;4.602;2023-04-15T07:43:06;15.40;;;13.80;;
14698;SDS011;7439;50.804;4.602;2023-04-15T07:45:35;14.80;;;13.30;;
14698;SDS011;7439;50.804;4.602;2023-04-15T07:48:03;16.77;;;13.43;;
14698;SDS011;7439;50.804;4.602;2023-04-15T07:50:31;14.37;;;12.87;;
14698;SDS011;7439;50.804;4.602;2023-04-15T07:52:59;14.53;;;13.20;;
14698;SDS011;7439;50.804;4.602;2023-04-15T07:55:26;14.43;;;13.03;;
14698;SDS011;7439;50.804;4.602;2023-04-15T07:57:54;14.43;;;13.03;;
14698;SDS011;7439;50.804;4.602;2023-04-15T08:00:22;13.63;;;12.23;;
14698;SDS011;7439;50.804;4.602;2023-04-15T08:02:52;13.27;;;11.87;;
14698;SDS011;7439;50.804;4.602;2023-04-15T08:05:21;13.13;;;11.60;;
14698;SDS011;7439;50.804;4.602;2023-04-15T08:07:48;13.63;;;12.07;;
14698;SDS011;7439;50.804;4.602;2023-04-15T08:10:16;13.80;;;12.30;;
14698;SDS011;7439;50.804;4.602;2023-04-15T08:12:43;14.80;;;13.33;;
14698;SDS011;7439;50.804;4.602;2023-04-15T08:15:13;14.97;;;13.20;;
14698;SDS011;7439;50.804;4.602;2023-04-15T08:17:40;15.97;;;12.37;;
14698;SDS011;7439;50.804;4.602;2023-04-15T08:20:12;14.37;;;12.53;;
14698;SDS011;7439;50.804;4.602;2023-04-15T08:22:40;13.87;;;12.47;;
14698;SDS011;7439;50.804;4.602;2023-04-15T08:25:08;14.70;;;12.30;;
14698;SDS011;7439;50.804;4.602;2023-04-15T08:27:35;13.90;;;11.17;;
14698;SDS011;7439;50.804;4.602;2023-04-15T08:30:03;12.07;;;10.87;;
14698;SDS011;7439;50.804;4.602;2023-04-15T08:32:31;14.60;;;10.80;;
14698;SDS011;7439;50.804;4.602;2023-04-15T08:34:58;12.23;;;10.27;;
14698;SDS011;7439;50.804;4.602;2023-04-15T08:37:27;12.10;;;9.80;;
14698;SDS011;7439;50.804;4.602;2023-04-15T08:39:55;9.13;;;8.03;;
14698;SDS011;7439;50.804;4.602;2023-04-15T08:42:23;12.87;;;7.80;;
14698;SDS011;7439;50.804;4.602;2023-04-15T08:44:54;9.23;;;7.47;;
14698;SDS011;7439;50.804;4.602;2023-04-15T08:47:28;10.60;;;6.70;;
14698;SDS011;7439;50.804;4.602;2023-04-15T08:49:57;9.50;;;6.90;;
14698;SDS011;7439;50.804;4.602;2023-04-15T08:52:29;12.03;;;6.70;;
14698;SDS011;7439;50.804;4.602;2023-04-15T08:54:57;7.63;;;6.17;;
14698;SDS011;7439;50.804;4.602;2023-04-15T08:57:27;5.43;;;4.60;;
14698;SDS011;7439;50.804;4.602;2023-04-15T08:59:54;8.33;;;4.87;;
14698;SDS011;7439;50.804;4.602;2023-04-15T09:02:23;7.33;;;4.80;;
14698;SDS011;7439;50.804;4.602;2023-04-15T09:04:51;8.70;;;5.13;;
14698;SDS011;7439;50.804;4.602;2023-04-15T09:07:19;6.83;;;5.40;;
14698;SDS011;7439;50.804;4.602;2023-04-15T09:09:48;5.10;;;4.47;;
14698;SDS011;7439;50.804;4.602;2023-04-15T09:12:16;6.70;;;5.20;;
14698;SDS011;7439;50.804;4.602;2023-04-15T09:14:44;6.97;;;5.60;;
14698;SDS011;7439;50.804;4.602;2023-04-15T09:17:12;7.57;;;5.67;;
14698;SDS011;7439;50.804;4.602;2023-04-15T09:19:39;8.33;;;5.57;;
14698;SDS011;7439;50.804;4.602;2023-04-15T09:22:07;9.40;;;5.57;;
14698;SDS011;7439;50.804;4.602;2023-04-15T09:24:35;5.63;;;4.93;;
14698;SDS011;7439;50.804;4.602;2023-04-15T09:27:05;7.03;;;5.93;;
14698;SDS011;7439;50.804;4.602;2023-04-15T09:29:32;4.97;;;4.47;;
14698;SDS011;7439;50.804;4.602;2023-04-15T09:32:15;6.00;;;5.30;;
14698;SDS011;7439;50.804;4.602;2023-04-15T09:34:42;7.23;;;5.50;;
14698;SDS011;7439;50.804;4.602;2023-04-15T09:37:11;9.30;;;6.27;;
14698;SDS011;7439;50.804;4.602;2023-04-15T09:39:46;6.63;;;6.00;;
14698;SDS011;7439;50.804;4.602;2023-04-15T09:42:16;7.97;;;6.57;;
14698;SDS011;7439;50.804;4.602;2023-04-15T09:44:48;9.27;;;7.10;;
14698;SDS011;7439;50.804;4.602;2023-04-15T09:47:28;8.33;;;6.73;;
14698;SDS011;7439;50.804;4.602;2023-04-15T09:49:55;7.90;;;5.97;;
14698;SDS011;7439;50.804;4.602;2023-04-15T09:52:23;7.00;;;6.30;;
14698;SDS011;7439;50.804;4.602;2023-04-15T09:54:52;6.70;;;6.03;;
14698;SDS011;7439;50.804;4.602;2023-04-15T09:57:22;8.47;;;6.30;;
14698;SDS011;7439;50.804;4.602;2023-04-15T09:59:49;6.47;;;5.70;;
14698;SDS011;7439;50.804;4.602;2023-04-15T10:02:17;7.07;;;5.83;;
14698;SDS011;7439;50.804;4.602;2023-04-15T10:04:45;6.33;;;5.50;;
14698;SDS011;7439;50.804;4.602;2023-04-15T10:07:15;6.17;;;5.67;;
14698;SDS011;7439;50.804;4.602;2023-04-15T10:09:44;6.80;;;5.47;;
14698;SDS011;7439;50.804;4.602;2023-04-15T10:12:12;6.60;;;5.10;;
14698;SDS011;7439;50.804;4.602;2023-04-15T10:14:44;5.30;;;4.47;;
14698;SDS011;7439;50.804;4.602;2023-04-15T10:17:14;4.53;;;4.10;;
14698;SDS011;7439;50.804;4.602;2023-04-15T10:19:44;6.27;;;3.83;;
14698;SDS011;7439;50.804;4.602;2023-04-15T10:22:12;4.70;;;3.40;;
14698;SDS011;7439;50.804;4.602;2023-04-15T10:24:40;4.27;;;3.40;;
14698;SDS011;7439;50.804;4.602;2023-04-15T10:27:12;4.40;;;4.00;;
14698;SDS011;7439;50.804;4.602;2023-04-15T10:29:49;4.30;;;3.77;;
14698;SDS011;7439;50.804;4.602;2023-04-15T10:32:17;4.57;;;3.60;;
14698;SDS011;7439;50.804;4.602;2023-04-15T10:34:45;4.13;;;3.10;;
14698;SDS011;7439;50.804;4.602;2023-04-15T10:37:18;4.17;;;3.43;;
14698;SDS011;7439;50.804;4.602;2023-04-15T10:39:46;3.30;;;3.00;;
14698;SDS011;7439;50.804;4.602;2023-04-15T10:42:17;3.97;;;2.97;;
14698;SDS011;7439;50.804;4.602;2023-04-15T10:44:48;4.80;;;2.93;;
14698;SDS011;7439;50.804;4.602;2023-04-15T10:47:18;3.10;;;2.80;;
14698;SDS011;7439;50.804;4.602;2023-04-15T10:49:47;3.47;;;3.17;;
14698;SDS011;7439;50.804;4.602;2023-04-15T10:52:15;3.20;;;2.80;;
14698;SDS011;7439;50.804;4.602;2023-04-15T10:54:43;4.33;;;3.00;;
14698;SDS011;7439;50.804;4.602;2023-04-15T10:57:14;3.20;;;2.87;;
14698;SDS011;7439;50.804;4.602;2023-04-15T10:59:58;5.33;;;3.33;;
14698;SDS011;7439;50.804;4.602;2023-04-15T11:02:38;3.30;;;3.00;;
14698;SDS011;7439;50.804;4.602;2023-04-15T11:05:06;3.50;;;3.20;;
14698;SDS011;7439;50.804;4.602;2023-04-15T11:07:34;3.20;;;2.90;;
14698;SDS011;7439;50.804;4.602;2023-04-15T11:10:02;5.97;;;3.37;;
14698;SDS011;7439;50.804;4.602;2023-04-15T11:12:33;3.60;;;3.23;;
14698;SDS011;7439;50.804;4.602;2023-04-15T11:17:45;4.10;;;3.70;;
14698;SDS011;7439;50.804;4.602;2023-04-15T11:20:13;3.87;;;3.33;;
14698;SDS011;7439;50.804;4.602;2023-04-15T11:22:46;3.50;;;3.17;;
14698;SDS011;7439;50.804;4.602;2023-04-15T11:25:21;3.93;;;2.60;;
14698;SDS011;7439;50.804;4.602;2023-04-15T11:27:48;2.67;;;2.47;;
14698;SDS011;7439;50.804;4.602;2023-04-15T11:30:19;3.40;;;2.80;;
14698;SDS011;7439;50.804;4.602;2023-04-15T11:32:48;3.30;;;2.97;;
14698;SDS011;7439;50.804;4.602;2023-04-15T11:35:18;4.07;;;3.00;;
14698;SDS011;7439;50.804;4.602;2023-04-15T11:37:46;4.93;;;3.40;;
14698;SDS011;7439;50.804;4.602;2023-04-15T11:40:14;3.60;;;3.30;;
14698;SDS011;7439;50.804;4.602;2023-04-15T11:42:42;3.43;;;3.10;;
14698;SDS011;7439;50.804;4.602;2023-04-15T11:45:11;3.50;;;3.00;;
14698;SDS011;7439;50.804;4.602;2023-04-15T11:47:40;3.63;;;3.30;;
14698;SDS011;7439;50.804;4.602;2023-04-15T11:50:16;3.40;;;3.10;;
14698;SDS011;7439;50.804;4.602;2023-04-15T11:55:28;3.97;;;3.57;;
14698;SDS011;7439;50.804;4.602;2023-04-15T11:58:06;3.50;;;3.20;;
14698;SDS011;7439;50.804;4.602;2023-04-15T12:00:34;3.33;;;3.07;;
14698;SDS011;7439;50.804;4.602;2023-04-15T12:03:11;3.53;;;3.23;;
14698;SDS011;7439;50.804;4.602;2023-04-15T12:08:22;2.90;;;2.70;;
14698;SDS011;7439;50.804;4.602;2023-04-15T12:10:57;3.30;;;3.10;;
14698;SDS011;7439;50.804;4.602;2023-04-15T12:13:26;3.47;;;2.93;;
14698;SDS011;7439;50.804;4.602;2023-04-15T12:15:57;4.13;;;3.60;;
14698;SDS011;7439;50.804;4.602;2023-04-15T12:18:24;3.40;;;2.97;;
14698;SDS011;7439;50.804;4.602;2023-04-15T12:20:51;2.87;;;2.57;;
14698;SDS011;7439;50.804;4.602;2023-04-15T12:23:19;2.60;;;2.40;;
14698;SDS011;7439;50.804;4.602;2023-04-15T12:25:51;3.00;;;2.80;;
14698;SDS011;7439;50.804;4.602;2023-04-15T12:28:18;2.83;;;2.63;;
14698;SDS011;7439;50.804;4.602;2023-04-15T12:30:49;2.70;;;2.30;;
14698;SDS011;7439;50.804;4.602;2023-04-15T12:33:16;3.33;;;2.17;;
14698;SDS011;7439;50.804;4.602;2023-04-15T12:35:43;2.63;;;2.43;;
14698;SDS011;7439;50.804;4.602;2023-04-15T12:38:11;2.90;;;2.70;;
14698;SDS011;7439;50.804;4.602;2023-04-15T12:40:39;4.00;;;3.70;;
14698;SDS011;7439;50.804;4.602;2023-04-15T12:43:08;5.07;;;3.20;;
14698;SDS011;7439;50.804;4.602;2023-04-15T12:45:35;5.40;;;2.67;;
14698;SDS011;7439;50.804;4.602;2023-04-15T12:48:02;3.03;;;2.30;;
14698;SDS011;7439;50.804;4.602;2023-04-15T12:50:30;2.33;;;1.93;;
14698;SDS011;7439;50.804;4.602;2023-04-15T12:52:57;3.07;;;1.50;;
14698;SDS011;7439;50.804;4.602;2023-04-15T12:55:25;1.70;;;1.57;;
14698;SDS011;7439;50.804;4.602;2023-04-15T12:57:52;1.63;;;1.50;;
14698;SDS011;7439;50.804;4.602;2023-04-15T13:00:21;2.60;;;1.70;;
14698;SDS011;7439;50.804;4.602;2023-04-15T13:02:49;3.00;;;1.67;;
14698;SDS011;7439;50.804;4.602;2023-04-15T13:05:16;1.80;;;1.60;;
14698;SDS011;7439;50.804;4.602;2023-04-15T13:07:44;3.00;;;1.80;;
14698;SDS011;7439;50.804;4.602;2023-04-15T13:10:11;3.03;;;2.10;;
14698;SDS011;7439;50.804;4.602;2023-04-15T13:12:38;2.30;;;2.10;;
14698;SDS011;7439;50.804;4.602;2023-04-15T13:15:06;2.60;;;2.40;;
14698;SDS011;7439;50.804;4.602;2023-04-15T13:17:36;3.60;;;2.60;;
14698;SDS011;7439;50.804;4.602;2023-04-15T13:20:04;2.97;;;2.50;;
14698;SDS011;7439;50.804;4.602;2023-04-15T13:22:33;3.10;;;2.80;;
14698;SDS011;7439;50.804;4.602;2023-04-15T13:25:00;2.70;;;2.47;;
14698;SDS011;7439;50.804;4.602;2023-04-15T13:27:27;2.83;;;2.33;;
14698;SDS011;7439;50.804;4.602;2023-04-15T13:29:55;2.60;;;2.27;;
14698;SDS011;7439;50.804;4.602;2023-04-15T13:32:23;4.70;;;2.37;;
14698;SDS011;7439;50.804;4.602;2023-04-15T13:34:51;2.63;;;2.20;;
14698;SDS011;7439;50.804;4.602;2023-04-15T13:37:21;2.33;;;2.00;;
14698;SDS011;7439;50.804;4.602;2023-04-15T13:39:51;2.43;;;1.90;;
14698;SDS011;7439;50.804;4.602;2023-04-15T13:42:19;3.43;;;2.17;;
14698;SDS011;7439;50.804;4.602;2023-04-15T13:44:48;2.23;;;2.03;;
14698;SDS011;7439;50.804;4.602;2023-04-15T13:47:15;2.80;;;2.20;;
14698;SDS011;7439;50.804;4.602;2023-04-15T13:49:43;4.17;;;2.67;;
14698;SDS011;7439;50.804;4.602;2023-04-15T13:52:12;3.23;;;2.63;;
14698;SDS011;7439;50.804;4.602;2023-04-15T13:54:39;3.77;;;2.50;;
14698;SDS011;7439;50.804;4.602;2023-04-15T13:57:10;3.53;;;2.40;;
14698;SDS011;7439;50.804;4.602;2023-04-15T13:59:42;3.23;;;2.30;;
14698;SDS011;7439;50.804;4.602;2023-04-15T14:02:09;2.70;;;2.10;;
14698;SDS011;7439;50.804;4.602;2023-04-15T14:04:38;2.87;;;2.07;;
14698;SDS011;7439;50.804;4.602;2023-04-15T14:07:09;2.87;;;2.10;;
14698;SDS011;7439;50.804;4.602;2023-04-15T14:09:39;3.00;;;2.10;;
14698;SDS011;7439;50.804;4.602;2023-04-15T14:12:06;3.27;;;2.43;;
14698;SDS011;7439;50.804;4.602;2023-04-15T14:14:38;4.20;;;2.67;;
14698;SDS011;7439;50.804;4.602;2023-04-15T14:17:05;3.40;;;2.20;;
14698;SDS011;7439;50.804;4.602;2023-04-15T14:19:33;4.17;;;2.30;;
14698;SDS011;7439;50.804;4.602;2023-04-15T14:22:01;3.80;;;2.50;;
14698;SDS011;7439;50.804;4.602;2023-04-15T14:24:31;3.27;;;2.10;;
14698;SDS011;7439;50.804;4.602;2023-04-15T14:27:00;5.03;;;2.60;;
14698;SDS011;7439;50.804;4.602;2023-04-15T14:29:28;4.50;;;2.13;;
14698;SDS011;7439;50.804;4.602;2023-04-15T14:31:56;2.30;;;1.73;;
14698;SDS011;7439;50.804;4.602;2023-04-15T14:34:23;2.13;;;1.80;;
14698;SDS011;7439;50.804;4.602;2023-04-15T14:36:50;1.40;;;1.30;;
14698;SDS011;7439;50.804;4.602;2023-04-15T14:39:18;2.70;;;1.60;;
14698;SDS011;7439;50.804;4.602;2023-04-15T14:41:45;2.07;;;1.70;;
14698;SDS011;7439;50.804;4.602;2023-04-15T14:44:14;2.83;;;1.70;;
14698;SDS011;7439;50.804;4.602;2023-04-15T14:46:42;2.10;;;1.60;;
14698;SDS011;7439;50.804;4.602;2023-04-15T14:49:11;2.07;;;1.80;;
14698;SDS011;7439;50.804;4.602;2023-04-15T14:51:39;2.23;;;1.60;;
14698;SDS011;7439;50.804;4.602;2023-04-15T14:54:07;3.10;;;1.77;;
14698;SDS011;7439;50.804;4.602;2023-04-15T14:56:34;3.10;;;2.10;;
14698;SDS011;7439;50.804;4.602;2023-04-15T14:59:01;2.23;;;2.00;;
14698;SDS011;7439;50.804;4.602;2023-04-15T15:01:32;2.40;;;1.77;;
14698;SDS011;7439;50.804;4.602;2023-04-15T15:04:06;3.07;;;2.13;;
14698;SDS011;7439;50.804;4.602;2023-04-15T15:06:52;2.87;;;1.80;;